sensor_id;sensor_type;location;lat;lon;timestamp;temperature;humidity
52107;DHT22;38105;52.968;5.974;2023-08-17T00:01:39;16.00;99.90
52107;DHT22;38105;52.968;5.974;2023-08-17T00:04:05;16.00;99.90
52107;DHT22;38105;52.968;5.974;2023-08-17T00:06:30;16.00;99.90
52107;DHT22;38105;52.968;5.974;2023-08-17T00:08:56;16.10;99.90
52107;DHT22;38105;52.968;5.974;2023-08-17T00:11:21;16.00;99.90
52107;DHT22;38105;52.968;5.974;2023-08-17T00:13:47;15.90;99.90
52107;DHT22;38105;52.968;5.974;2023-08-17T00:16:12;16.00;99.90
52107;DHT22;38105;52.968;5.974;2023-08-17T00:18:38;16.00;99.90
52107;DHT22;38105;52.968;5.974;2023-08-17T00:21:04;16.00;99.90
52107;DHT22;38105;52.968;5.974;2023-08-17T00:23:33;16.10;99.90
52107;DHT22;38105;52.968;5.974;2023-08-17T00:25:58;15.90;99.90
52107;DHT22;38105;52.968;5.974;2023-08-17T00:28:27;16.00;99.90
52107;DHT22;38105;52.968;5.974;2023-08-17T00:30:55;15.90;99.90
52107;DHT22;38105;52.968;5.974;2023-08-17T00:33:20;15.90;99.90
52107;DHT22;38105;52.968;5.974;2023-08-17T00:35:46;15.90;99.90
52107;DHT22;38105;52.968;5.974;2023-08-17T00:38:12;15.90;99.90
52107;DHT22;38105;52.968;5.974;2023-08-17T00:40:37;15.80;99.90
52107;DHT22;38105;52.968;5.974;2023-08-17T00:43:03;15.80;99.90
52107;DHT22;38105;52.968;5.974;2023-08-17T00:45:30;15.80;99.90
52107;DHT22;38105;52.968;5.974;2023-08-17T00:47:56;15.80;99.90
52107;DHT22;38105;52.968;5.974;2023-08-17T00:50:22;15.80;99.90
52107;DHT22;38105;52.968;5.974;2023-08-17T00:52:53;15.80;99.90
52107;DHT22;38105;52.968;5.974;2023-08-17T00:55:23;15.80;99.90
52107;DHT22;38105;52.968;5.974;2023-08-17T00:57:49;15.80;99.90
52107;DHT22;38105;52.968;5.974;2023-08-17T01:00:15;15.70;99.90
52107;DHT22;38105;52.968;5.974;2023-08-17T01:02:41;15.70;99.90
52107;DHT22;38105;52.968;5.974;2023-08-17T01:05:07;15.70;99.90
52107;DHT22;38105;52.968;5.974;2023-08-17T01:07:32;15.70;99.90
52107;DHT22;38105;52.968;5.974;2023-08-17T01:09:58;15.70;99.90
52107;DHT22;38105;52.968;5.974;2023-08-17T01:12:28;15.80;99.90
52107;DHT22;38105;52.968;5.974;2023-08-17T01:15:12;15.70;99.90
52107;DHT22;38105;52.968;5.974;2023-08-17T01:17:50;15.70;99.90
52107;DHT22;38105;52.968;5.974;2023-08-17T01:20:17;15.60;99.90
52107;DHT22;38105;52.968;5.974;2023-08-17T01:22:44;15.60;99.90
52107;DHT22;38105;52.968;5.974;2023-08-17T01:25:10;15.60;99.90
52107;DHT22;38105;52.968;5.974;2023-08-17T01:27:45;15.60;99.90
52107;DHT22;38105;52.968;5.974;2023-08-17T01:30:11;15.50;99.90
52107;DHT22;38105;52.968;5.974;2023-08-17T01:32:44;15.50;99.90
52107;DHT22;38105;52.968;5.974;2023-08-17T01:37:44;15.40;99.90
52107;DHT22;38105;52.968;5.974;2023-08-17T01:40:10;15.40;99.90
52107;DHT22;38105;52.968;5.974;2023-08-17T01:42:40;15.50;99.90
52107;DHT22;38105;52.968;5.974;2023-08-17T01:45:06;15.40;99.90
52107;DHT22;38105;52.968;5.974;2023-08-17T01:47:32;15.30;99.90
52107;DHT22;38105;52.968;5.974;2023-08-17T01:49:58;15.20;99.90
52107;DHT22;38105;52.968;5.974;2023-08-17T01:52:26;15.20;99.90
52107;DHT22;38105;52.968;5.974;2023-08-17T01:54:53;15.20;99.90
52107;DHT22;38105;52.968;5.974;2023-08-17T01:57:18;15.10;99.90
52107;DHT22;38105;52.968;5.974;2023-08-17T01:59:44;15.10;99.90
52107;DHT22;38105;52.968;5.974;2023-08-17T02:02:10;15.20;99.90
52107;DHT22;38105;52.968;5.974;2023-08-17T02:04:37;15.20;99.90
52107;DHT22;38105;52.968;5.974;2023-08-17T02:07:02;15.20;99.90
52107;DHT22;38105;52.968;5.974;2023-08-17T02:09:28;15.10;99.90
52107;DHT22;38105;52.968;5.974;2023-08-17T02:11:54;15.10;99.90
52107;DHT22;38105;52.968;5.974;2023-08-17T02:14:19;15.10;99.90
52107;DHT22;38105;52.968;5.974;2023-08-17T02:16:45;15.00;99.90
52107;DHT22;38105;52.968;5.974;2023-08-17T02:19:10;15.00;99.90
52107;DHT22;38105;52.968;5.974;2023-08-17T02:21:36;15.00;99.90
52107;DHT22;38105;52.968;5.974;2023-08-17T02:24:02;14.90;99.90
52107;DHT22;38105;52.968;5.974;2023-08-17T02:26:29;15.00;99.90
52107;DHT22;38105;52.968;5.974;2023-08-17T02:28:55;15.00;99.90
52107;DHT22;38105;52.968;5.974;2023-08-17T02:31:20;15.10;99.90
52107;DHT22;38105;52.968;5.974;2023-08-17T02:33:46;15.00;99.90
52107;DHT22;38105;52.968;5.974;2023-08-17T02:36:15;15.10;99.90
52107;DHT22;38105;52.968;5.974;2023-08-17T02:38:43;14.90;99.90
52107;DHT22;38105;52.968;5.974;2023-08-17T02:41:09;15.00;99.90
52107;DHT22;38105;52.968;5.974;2023-08-17T02:43:37;14.80;99.90
52107;DHT22;38105;52.968;5.974;2023-08-17T02:46:03;14.80;99.90
52107;DHT22;38105;52.968;5.974;2023-08-17T02:48:33;14.90;99.90
52107;DHT22;38105;52.968;5.974;2023-08-17T02:50:58;14.90;99.90
52107;DHT22;38105;52.968;5.974;2023-08-17T02:53:24;14.70;99.90
52107;DHT22;38105;52.968;5.974;2023-08-17T02:55:52;14.70;99.90
52107;DHT22;38105;52.968;5.974;2023-08-17T02:58:18;14.80;99.90
52107;DHT22;38105;52.968;5.974;2023-08-17T03:00:44;14.80;99.90
52107;DHT22;38105;52.968;5.974;2023-08-17T03:03:09;14.70;99.90
52107;DHT22;38105;52.968;5.974;2023-08-17T03:05:35;14.60;99.90
52107;DHT22;38105;52.968;5.974;2023-08-17T03:08:01;14.70;99.90
52107;DHT22;38105;52.968;5.974;2023-08-17T03:10:26;14.70;99.90
52107;DHT22;38105;52.968;5.974;2023-08-17T03:12:52;14.60;99.90
52107;DHT22;38105;52.968;5.974;2023-08-17T03:15:17;14.60;99.90
52107;DHT22;38105;52.968;5.974;2023-08-17T03:17:43;14.60;99.90
52107;DHT22;38105;52.968;5.974;2023-08-17T03:20:11;14.60;99.90
52107;DHT22;38105;52.968;5.974;2023-08-17T03:22:36;14.60;99.90
52107;DHT22;38105;52.968;5.974;2023-08-17T03:25:02;14.50;99.90
52107;DHT22;38105;52.968;5.974;2023-08-17T03:27:28;14.60;99.90
52107;DHT22;38105;52.968;5.974;2023-08-17T03:29:54;14.70;99.90
52107;DHT22;38105;52.968;5.974;2023-08-17T03:32:19;14.60;99.90
52107;DHT22;38105;52.968;5.974;2023-08-17T03:34:45;14.60;99.90
52107;DHT22;38105;52.968;5.974;2023-08-17T03:37:13;14.60;99.90
52107;DHT22;38105;52.968;5.974;2023-08-17T03:39:38;14.60;99.90
52107;DHT22;38105;52.968;5.974;2023-08-17T03:42:04;14.60;99.90
52107;DHT22;38105;52.968;5.974;2023-08-17T03:44:29;14.50;99.90
52107;DHT22;38105;52.968;5.974;2023-08-17T03:46:55;14.50;99.90
52107;DHT22;38105;52.968;5.974;2023-08-17T03:49:20;14.60;99.90
52107;DHT22;38105;52.968;5.974;2023-08-17T03:51:46;14.60;99.90
52107;DHT22;38105;52.968;5.974;2023-08-17T03:54:12;14.60;99.90
52107;DHT22;38105;52.968;5.974;2023-08-17T03:56:38;14.60;99.90
52107;DHT22;38105;52.968;5.974;2023-08-17T03:59:04;14.70;99.90
52107;DHT22;38105;52.968;5.974;2023-08-17T04:01:29;14.60;99.90
52107;DHT22;38105;52.968;5.974;2023-08-17T04:03:55;14.70;99.90
52107;DHT22;38105;52.968;5.974;2023-08-17T04:06:20;14.60;99.90
52107;DHT22;38105;52.968;5.974;2023-08-17T04:08:46;14.50;99.90
52107;DHT22;38105;52.968;5.974;2023-08-17T04:11:12;14.70;99.90
52107;DHT22;38105;52.968;5.974;2023-08-17T04:13:37;14.60;99.90
52107;DHT22;38105;52.968;5.974;2023-08-17T04:16:05;14.60;99.90
52107;DHT22;38105;52.968;5.974;2023-08-17T04:18:31;14.60;99.90
52107;DHT22;38105;52.968;5.974;2023-08-17T04:20:56;14.60;99.90
52107;DHT22;38105;52.968;5.974;2023-08-17T04:23:22;14.60;99.90
52107;DHT22;38105;52.968;5.974;2023-08-17T04:25:47;14.50;99.90
52107;DHT22;38105;52.968;5.974;2023-08-17T04:28:13;14.50;99.90
52107;DHT22;38105;52.968;5.974;2023-08-17T04:30:39;14.60;99.90
52107;DHT22;38105;52.968;5.974;2023-08-17T04:33:05;14.50;99.90
52107;DHT22;38105;52.968;5.974;2023-08-17T04:35:30;14.50;99.90
52107;DHT22;38105;52.968;5.974;2023-08-17T04:37:56;14.50;99.90
52107;DHT22;38105;52.968;5.974;2023-08-17T04:40:24;14.50;99.90
52107;DHT22;38105;52.968;5.974;2023-08-17T04:42:50;14.40;99.90
52107;DHT22;38105;52.968;5.974;2023-08-17T04:45:18;14.50;99.90
52107;DHT22;38105;52.968;5.974;2023-08-17T04:47:44;14.50;99.90
52107;DHT22;38105;52.968;5.974;2023-08-17T04:50:09;14.60;99.90
52107;DHT22;38105;52.968;5.974;2023-08-17T04:52:35;14.60;99.90
52107;DHT22;38105;52.968;5.974;2023-08-17T04:55:01;14.70;99.90
52107;DHT22;38105;52.968;5.974;2023-08-17T04:57:26;14.60;99.90
52107;DHT22;38105;52.968;5.974;2023-08-17T04:59:53;14.70;99.90
52107;DHT22;38105;52.968;5.974;2023-08-17T05:02:21;14.90;99.90
52107;DHT22;38105;52.968;5.974;2023-08-17T05:04:47;14.90;99.90
52107;DHT22;38105;52.968;5.974;2023-08-17T05:07:13;14.90;99.90
52107;DHT22;38105;52.968;5.974;2023-08-17T05:09:38;15.00;99.90
52107;DHT22;38105;52.968;5.974;2023-08-17T05:12:04;15.40;99.90
52107;DHT22;38105;52.968;5.974;2023-08-17T05:14:32;15.80;99.90
52107;DHT22;38105;52.968;5.974;2023-08-17T05:16:58;16.00;99.90
52107;DHT22;38105;52.968;5.974;2023-08-17T05:19:23;16.10;99.90
52107;DHT22;38105;52.968;5.974;2023-08-17T05:21:49;16.00;99.90
52107;DHT22;38105;52.968;5.974;2023-08-17T05:24:16;15.80;99.90
52107;DHT22;38105;52.968;5.974;2023-08-17T05:26:48;15.90;99.90
52107;DHT22;38105;52.968;5.974;2023-08-17T05:29:14;16.00;99.90
52107;DHT22;38105;52.968;5.974;2023-08-17T05:31:39;16.30;99.90
52107;DHT22;38105;52.968;5.974;2023-08-17T05:34:05;17.00;99.90
52107;DHT22;38105;52.968;5.974;2023-08-17T05:36:30;18.00;99.90
52107;DHT22;38105;52.968;5.974;2023-08-17T05:38:56;18.80;99.90
52107;DHT22;38105;52.968;5.974;2023-08-17T05:41:21;19.80;99.90
52107;DHT22;38105;52.968;5.974;2023-08-17T05:43:48;20.20;99.90
52107;DHT22;38105;52.968;5.974;2023-08-17T05:46:14;19.70;99.90
52107;DHT22;38105;52.968;5.974;2023-08-17T05:48:39;19.20;99.90
52107;DHT22;38105;52.968;5.974;2023-08-17T05:51:06;19.00;99.90
52107;DHT22;38105;52.968;5.974;2023-08-17T05:53:32;19.10;99.90
52107;DHT22;38105;52.968;5.974;2023-08-17T05:55:57;19.20;99.90
52107;DHT22;38105;52.968;5.974;2023-08-17T05:58:23;20.00;99.90
52107;DHT22;38105;52.968;5.974;2023-08-17T06:00:49;21.00;99.90
52107;DHT22;38105;52.968;5.974;2023-08-17T06:03:15;21.80;99.90
52107;DHT22;38105;52.968;5.974;2023-08-17T06:05:40;22.20;99.90
52107;DHT22;38105;52.968;5.974;2023-08-17T06:08:06;22.50;99.90
52107;DHT22;38105;52.968;5.974;2023-08-17T06:10:31;22.90;99.90
52107;DHT22;38105;52.968;5.974;2023-08-17T06:12:57;23.20;99.90
52107;DHT22;38105;52.968;5.974;2023-08-17T06:15:23;24.20;99.90
52107;DHT22;38105;52.968;5.974;2023-08-17T06:17:49;24.40;99.90
52107;DHT22;38105;52.968;5.974;2023-08-17T06:20:17;25.00;99.90
52107;DHT22;38105;52.968;5.974;2023-08-17T06:22:44;25.60;99.90
52107;DHT22;38105;52.968;5.974;2023-08-17T06:25:09;26.00;99.90
52107;DHT22;38105;52.968;5.974;2023-08-17T06:27:36;26.20;99.90
52107;DHT22;38105;52.968;5.974;2023-08-17T06:30:02;25.90;99.90
52107;DHT22;38105;52.968;5.974;2023-08-17T06:32:31;26.20;99.90
52107;DHT22;38105;52.968;5.974;2023-08-17T06:34:56;26.80;99.90
52107;DHT22;38105;52.968;5.974;2023-08-17T06:37:22;26.90;99.90
52107;DHT22;38105;52.968;5.974;2023-08-17T06:39:48;27.30;99.90
52107;DHT22;38105;52.968;5.974;2023-08-17T06:42:13;27.50;99.90
52107;DHT22;38105;52.968;5.974;2023-08-17T06:44:39;27.70;99.90
52107;DHT22;38105;52.968;5.974;2023-08-17T06:47:04;28.50;99.90
52107;DHT22;38105;52.968;5.974;2023-08-17T06:49:30;29.10;99.90
52107;DHT22;38105;52.968;5.974;2023-08-17T06:51:55;28.30;99.90
52107;DHT22;38105;52.968;5.974;2023-08-17T06:54:21;27.80;99.90
52107;DHT22;38105;52.968;5.974;2023-08-17T06:56:46;27.50;99.90
52107;DHT22;38105;52.968;5.974;2023-08-17T06:59:14;27.70;99.90
52107;DHT22;38105;52.968;5.974;2023-08-17T07:01:40;28.10;99.90
52107;DHT22;38105;52.968;5.974;2023-08-17T07:04:05;28.40;99.90
52107;DHT22;38105;52.968;5.974;2023-08-17T07:06:31;29.10;99.90
52107;DHT22;38105;52.968;5.974;2023-08-17T07:08:57;29.60;99.90
52107;DHT22;38105;52.968;5.974;2023-08-17T07:11:22;29.90;99.90
52107;DHT22;38105;52.968;5.974;2023-08-17T07:13:48;29.40;99.90
52107;DHT22;38105;52.968;5.974;2023-08-17T07:16:13;29.70;99.90
52107;DHT22;38105;52.968;5.974;2023-08-17T07:18:39;30.30;99.90
52107;DHT22;38105;52.968;5.974;2023-08-17T07:21:05;29.40;99.90
52107;DHT22;38105;52.968;5.974;2023-08-17T07:23:31;28.90;99.90
52107;DHT22;38105;52.968;5.974;2023-08-17T07:25:56;27.60;99.90
52107;DHT22;38105;52.968;5.974;2023-08-17T07:28:22;26.80;99.90
52107;DHT22;38105;52.968;5.974;2023-08-17T07:30:47;25.90;99.90
52107;DHT22;38105;52.968;5.974;2023-08-17T07:33:13;26.20;99.90
52107;DHT22;38105;52.968;5.974;2023-08-17T07:35:39;27.10;99.90
52107;DHT22;38105;52.968;5.974;2023-08-17T07:38:04;27.90;99.90
52107;DHT22;38105;52.968;5.974;2023-08-17T07:40:30;29.40;99.90
52107;DHT22;38105;52.968;5.974;2023-08-17T07:42:56;29.30;99.90
52107;DHT22;38105;52.968;5.974;2023-08-17T07:45:22;29.80;99.90
52107;DHT22;38105;52.968;5.974;2023-08-17T07:47:47;30.00;99.90
52107;DHT22;38105;52.968;5.974;2023-08-17T07:50:13;29.20;99.90
52107;DHT22;38105;52.968;5.974;2023-08-17T07:52:38;28.60;99.90
52107;DHT22;38105;52.968;5.974;2023-08-17T07:55:04;28.10;99.90
52107;DHT22;38105;52.968;5.974;2023-08-17T07:57:30;27.60;99.90
52107;DHT22;38105;52.968;5.974;2023-08-17T07:59:56;27.10;99.90
52107;DHT22;38105;52.968;5.974;2023-08-17T08:02:21;26.60;99.90
52107;DHT22;38105;52.968;5.974;2023-08-17T08:04:47;26.30;99.90
52107;DHT22;38105;52.968;5.974;2023-08-17T08:07:12;25.80;99.90
52107;DHT22;38105;52.968;5.974;2023-08-17T08:09:38;25.80;99.90
52107;DHT22;38105;52.968;5.974;2023-08-17T08:12:04;26.40;99.90
52107;DHT22;38105;52.968;5.974;2023-08-17T08:14:30;27.30;99.90
52107;DHT22;38105;52.968;5.974;2023-08-17T08:16:56;27.80;99.90
52107;DHT22;38105;52.968;5.974;2023-08-17T08:19:21;27.40;99.90
52107;DHT22;38105;52.968;5.974;2023-08-17T08:21:47;27.30;99.90
52107;DHT22;38105;52.968;5.974;2023-08-17T08:24:13;27.40;99.90
52107;DHT22;38105;52.968;5.974;2023-08-17T08:26:38;27.20;99.90
52107;DHT22;38105;52.968;5.974;2023-08-17T08:29:04;26.50;99.90
52107;DHT22;38105;52.968;5.974;2023-08-17T08:31:29;26.00;99.90
52107;DHT22;38105;52.968;5.974;2023-08-17T08:33:55;25.60;99.90
52107;DHT22;38105;52.968;5.974;2023-08-17T08:36:20;25.60;99.90
52107;DHT22;38105;52.968;5.974;2023-08-17T08:38:46;25.30;99.90
52107;DHT22;38105;52.968;5.974;2023-08-17T08:41:12;24.80;99.90
52107;DHT22;38105;52.968;5.974;2023-08-17T08:43:38;24.00;99.90
52107;DHT22;38105;52.968;5.974;2023-08-17T08:46:04;23.40;99.90
52107;DHT22;38105;52.968;5.974;2023-08-17T08:48:29;23.10;99.90
52107;DHT22;38105;52.968;5.974;2023-08-17T08:50:56;23.00;99.90
52107;DHT22;38105;52.968;5.974;2023-08-17T08:53:28;23.30;99.90
52107;DHT22;38105;52.968;5.974;2023-08-17T08:55:57;24.00;99.90
52107;DHT22;38105;52.968;5.974;2023-08-17T08:58:24;24.80;99.90
52107;DHT22;38105;52.968;5.974;2023-08-17T09:00:50;25.90;99.90
52107;DHT22;38105;52.968;5.974;2023-08-17T09:03:16;26.80;99.90
52107;DHT22;38105;52.968;5.974;2023-08-17T09:05:52;26.80;99.90
52107;DHT22;38105;52.968;5.974;2023-08-17T09:08:21;26.00;99.90
52107;DHT22;38105;52.968;5.974;2023-08-17T09:10:48;25.70;99.90
52107;DHT22;38105;52.968;5.974;2023-08-17T09:13:13;25.70;99.90
52107;DHT22;38105;52.968;5.974;2023-08-17T09:15:39;25.20;99.90
52107;DHT22;38105;52.968;5.974;2023-08-17T09:18:05;25.20;99.90
52107;DHT22;38105;52.968;5.974;2023-08-17T09:23:14;25.10;99.90
52107;DHT22;38105;52.968;5.974;2023-08-17T09:25:41;25.20;99.90
52107;DHT22;38105;52.968;5.974;2023-08-17T09:28:11;25.10;99.90
52107;DHT22;38105;52.968;5.974;2023-08-17T09:30:57;25.20;99.90
52107;DHT22;38105;52.968;5.974;2023-08-17T09:33:24;25.50;99.90
52107;DHT22;38105;52.968;5.974;2023-08-17T09:35:50;26.70;99.90
52107;DHT22;38105;52.968;5.974;2023-08-17T09:38:16;27.40;99.90
52107;DHT22;38105;52.968;5.974;2023-08-17T09:40:42;28.10;99.90
52107;DHT22;38105;52.968;5.974;2023-08-17T09:43:08;28.40;99.90
52107;DHT22;38105;52.968;5.974;2023-08-17T09:45:33;28.50;99.90
52107;DHT22;38105;52.968;5.974;2023-08-17T09:47:59;28.40;99.90
52107;DHT22;38105;52.968;5.974;2023-08-17T09:50:25;28.30;99.90
52107;DHT22;38105;52.968;5.974;2023-08-17T09:52:54;27.10;99.90
52107;DHT22;38105;52.968;5.974;2023-08-17T09:55:20;26.50;99.90
52107;DHT22;38105;52.968;5.974;2023-08-17T09:57:48;26.10;99.90
52107;DHT22;38105;52.968;5.974;2023-08-17T10:00:14;25.60;99.90
52107;DHT22;38105;52.968;5.974;2023-08-17T10:02:40;25.30;99.90
52107;DHT22;38105;52.968;5.974;2023-08-17T10:05:06;26.30;99.90
52107;DHT22;38105;52.968;5.974;2023-08-17T10:07:35;27.00;99.90
52107;DHT22;38105;52.968;5.974;2023-08-17T10:10:02;27.70;99.90
52107;DHT22;38105;52.968;5.974;2023-08-17T10:12:28;27.90;99.90
52107;DHT22;38105;52.968;5.974;2023-08-17T10:14:59;28.10;99.90
52107;DHT22;38105;52.968;5.974;2023-08-17T10:17:26;28.40;99.90
52107;DHT22;38105;52.968;5.974;2023-08-17T10:19:54;28.10;99.90
52107;DHT22;38105;52.968;5.974;2023-08-17T10:22:23;27.70;99.90
52107;DHT22;38105;52.968;5.974;2023-08-17T10:24:51;26.90;99.90
52107;DHT22;38105;52.968;5.974;2023-08-17T10:27:17;26.80;99.90
52107;DHT22;38105;52.968;5.974;2023-08-17T10:29:44;26.80;99.90
52107;DHT22;38105;52.968;5.974;2023-08-17T10:32:10;26.90;99.90
52107;DHT22;38105;52.968;5.974;2023-08-17T10:34:36;26.50;99.90
52107;DHT22;38105;52.968;5.974;2023-08-17T10:37:02;26.50;99.90
52107;DHT22;38105;52.968;5.974;2023-08-17T10:39:28;26.70;99.90
52107;DHT22;38105;52.968;5.974;2023-08-17T10:41:54;26.50;99.90
52107;DHT22;38105;52.968;5.974;2023-08-17T10:44:37;26.60;99.90
52107;DHT22;38105;52.968;5.974;2023-08-17T10:49:43;25.60;99.90
52107;DHT22;38105;52.968;5.974;2023-08-17T10:52:12;25.20;99.90
52107;DHT22;38105;52.968;5.974;2023-08-17T10:54:41;25.10;99.90
52107;DHT22;38105;52.968;5.974;2023-08-17T10:57:41;25.00;99.90
52107;DHT22;38105;52.968;5.974;2023-08-17T11:02:33;24.50;99.90
52107;DHT22;38105;52.968;5.974;2023-08-17T11:04:59;24.60;99.90
52107;DHT22;38105;52.968;5.974;2023-08-17T11:07:25;24.80;99.90
52107;DHT22;38105;52.968;5.974;2023-08-17T11:09:53;25.00;99.90
52107;DHT22;38105;52.968;5.974;2023-08-17T11:12:25;25.00;99.90
52107;DHT22;38105;52.968;5.974;2023-08-17T11:14:51;25.00;99.90
52107;DHT22;38105;52.968;5.974;2023-08-17T11:17:19;25.10;99.90
52107;DHT22;38105;52.968;5.974;2023-08-17T11:19:45;25.00;99.90
52107;DHT22;38105;52.968;5.974;2023-08-17T11:22:11;24.70;99.90
52107;DHT22;38105;52.968;5.974;2023-08-17T11:24:37;24.40;99.90
52107;DHT22;38105;52.968;5.974;2023-08-17T11:27:05;24.30;99.90
52107;DHT22;38105;52.968;5.974;2023-08-17T11:29:31;24.30;99.90
52107;DHT22;38105;52.968;5.974;2023-08-17T11:31:57;24.40;99.90
52107;DHT22;38105;52.968;5.974;2023-08-17T11:34:23;24.70;99.90
52107;DHT22;38105;52.968;5.974;2023-08-17T11:36:48;24.80;99.90
52107;DHT22;38105;52.968;5.974;2023-08-17T11:39:14;24.80;99.90
52107;DHT22;38105;52.968;5.974;2023-08-17T11:41:40;24.90;99.90
52107;DHT22;38105;52.968;5.974;2023-08-17T11:44:05;24.80;99.90
52107;DHT22;38105;52.968;5.974;2023-08-17T11:46:32;24.70;99.90
52107;DHT22;38105;52.968;5.974;2023-08-17T11:49:00;24.40;99.90
52107;DHT22;38105;52.968;5.974;2023-08-17T11:51:30;24.40;99.90
52107;DHT22;38105;52.968;5.974;2023-08-17T11:53:58;24.30;99.90
52107;DHT22;38105;52.968;5.974;2023-08-17T11:56:24;24.20;99.90
52107;DHT22;38105;52.968;5.974;2023-08-17T11:58:49;24.00;99.90
52107;DHT22;38105;52.968;5.974;2023-08-17T12:01:15;23.70;99.90
52107;DHT22;38105;52.968;5.974;2023-08-17T12:03:43;23.70;99.90
52107;DHT22;38105;52.968;5.974;2023-08-17T12:06:09;23.50;99.90
52107;DHT22;38105;52.968;5.974;2023-08-17T12:08:35;23.50;99.90
52107;DHT22;38105;52.968;5.974;2023-08-17T12:11:02;23.50;99.90
52107;DHT22;38105;52.968;5.974;2023-08-17T12:13:34;23.60;99.90
52107;DHT22;38105;52.968;5.974;2023-08-17T12:15:59;23.70;99.90
52107;DHT22;38105;52.968;5.974;2023-08-17T12:18:25;23.40;99.90
52107;DHT22;38105;52.968;5.974;2023-08-17T12:20:54;23.20;99.90
52107;DHT22;38105;52.968;5.974;2023-08-17T12:23:20;23.20;99.90
52107;DHT22;38105;52.968;5.974;2023-08-17T12:25:45;23.10;99.90
52107;DHT22;38105;52.968;5.974;2023-08-17T12:28:14;23.30;99.90
52107;DHT22;38105;52.968;5.974;2023-08-17T12:30:40;23.30;99.90
52107;DHT22;38105;52.968;5.974;2023-08-17T12:33:05;23.10;99.90
52107;DHT22;38105;52.968;5.974;2023-08-17T12:35:31;23.00;99.90
52107;DHT22;38105;52.968;5.974;2023-08-17T12:37:57;23.00;99.90
52107;DHT22;38105;52.968;5.974;2023-08-17T12:40:23;22.80;99.90
52107;DHT22;38105;52.968;5.974;2023-08-17T12:42:49;22.80;99.90
52107;DHT22;38105;52.968;5.974;2023-08-17T12:45:14;22.80;99.90
52107;DHT22;38105;52.968;5.974;2023-08-17T12:47:40;22.70;99.90
52107;DHT22;38105;52.968;5.974;2023-08-17T12:50:06;22.60;99.90
52107;DHT22;38105;52.968;5.974;2023-08-17T12:52:32;22.70;99.90
52107;DHT22;38105;52.968;5.974;2023-08-17T12:54:57;22.60;99.90
52107;DHT22;38105;52.968;5.974;2023-08-17T12:57:23;22.60;99.90
52107;DHT22;38105;52.968;5.974;2023-08-17T12:59:48;22.40;99.90
52107;DHT22;38105;52.968;5.974;2023-08-17T13:02:14;22.50;99.90
52107;DHT22;38105;52.968;5.974;2023-08-17T13:04:39;22.50;99.90
52107;DHT22;38105;52.968;5.974;2023-08-17T13:07:05;22.60;99.90
52107;DHT22;38105;52.968;5.974;2023-08-17T13:09:31;22.60;99.90
52107;DHT22;38105;52.968;5.974;2023-08-17T13:11:56;22.70;99.90
52107;DHT22;38105;52.968;5.974;2023-08-17T13:14:22;22.80;99.90
52107;DHT22;38105;52.968;5.974;2023-08-17T13:16:50;22.80;99.90
52107;DHT22;38105;52.968;5.974;2023-08-17T13:19:16;22.80;99.90
52107;DHT22;38105;52.968;5.974;2023-08-17T13:21:41;22.70;99.90
52107;DHT22;38105;52.968;5.974;2023-08-17T13:24:07;22.50;99.90
52107;DHT22;38105;52.968;5.974;2023-08-17T13:26:32;22.60;99.90
52107;DHT22;38105;52.968;5.974;2023-08-17T13:28:58;22.60;99.90
52107;DHT22;38105;52.968;5.974;2023-08-17T13:31:23;22.60;99.90
52107;DHT22;38105;52.968;5.974;2023-08-17T13:33:49;22.60;99.90
52107;DHT22;38105;52.968;5.974;2023-08-17T13:36:14;22.60;99.90
52107;DHT22;38105;52.968;5.974;2023-08-17T13:38:40;22.60;99.90
52107;DHT22;38105;52.968;5.974;2023-08-17T13:41:05;22.60;99.90
52107;DHT22;38105;52.968;5.974;2023-08-17T13:43:31;22.60;99.90
52107;DHT22;38105;52.968;5.974;2023-08-17T13:45:57;22.50;99.90
52107;DHT22;38105;52.968;5.974;2023-08-17T13:48:22;22.60;99.90
52107;DHT22;38105;52.968;5.974;2023-08-17T13:50:48;22.50;99.90
52107;DHT22;38105;52.968;5.974;2023-08-17T13:53:13;22.60;99.90
52107;DHT22;38105;52.968;5.974;2023-08-17T13:55:39;22.60;99.90
52107;DHT22;38105;52.968;5.974;2023-08-17T13:58:05;22.70;99.90
52107;DHT22;38105;52.968;5.974;2023-08-17T14:00:30;22.70;99.90
52107;DHT22;38105;52.968;5.974;2023-08-17T14:02:56;22.90;99.90
52107;DHT22;38105;52.968;5.974;2023-08-17T14:05:21;22.80;99.90
52107;DHT22;38105;52.968;5.974;2023-08-17T14:07:50;22.80;99.90
52107;DHT22;38105;52.968;5.974;2023-08-17T14:10:15;22.80;99.90
52107;DHT22;38105;52.968;5.974;2023-08-17T14:12:41;22.70;99.90
52107;DHT22;38105;52.968;5.974;2023-08-17T14:15:06;22.80;99.90
52107;DHT22;38105;52.968;5.974;2023-08-17T14:17:32;22.70;99.90
52107;DHT22;38105;52.968;5.974;2023-08-17T14:19:58;22.70;99.90
52107;DHT22;38105;52.968;5.974;2023-08-17T14:22:24;22.60;99.90
52107;DHT22;38105;52.968;5.974;2023-08-17T14:24:50;22.60;99.90
52107;DHT22;38105;52.968;5.974;2023-08-17T14:27:15;22.50;99.90
52107;DHT22;38105;52.968;5.974;2023-08-17T14:29:41;22.30;99.90
52107;DHT22;38105;52.968;5.974;2023-08-17T14:32:06;22.40;99.90
52107;DHT22;38105;52.968;5.974;2023-08-17T14:34:32;22.30;99.90
52107;DHT22;38105;52.968;5.974;2023-08-17T14:36:57;22.40;99.90
52107;DHT22;38105;52.968;5.974;2023-08-17T14:39:23;22.40;99.90
52107;DHT22;38105;52.968;5.974;2023-08-17T14:41:49;22.10;99.90
52107;DHT22;38105;52.968;5.974;2023-08-17T14:44:14;22.10;99.90
52107;DHT22;38105;52.968;5.974;2023-08-17T14:46:42;21.90;99.90
52107;DHT22;38105;52.968;5.974;2023-08-17T14:49:08;21.80;99.90
52107;DHT22;38105;52.968;5.974;2023-08-17T14:51:39;21.60;99.90
52107;DHT22;38105;52.968;5.974;2023-08-17T14:54:08;21.50;99.90
52107;DHT22;38105;52.968;5.974;2023-08-17T14:56:34;21.40;99.90
52107;DHT22;38105;52.968;5.974;2023-08-17T14:59:00;21.30;99.90
52107;DHT22;38105;52.968;5.974;2023-08-17T15:01:25;21.20;99.90
52107;DHT22;38105;52.968;5.974;2023-08-17T15:03:51;21.10;99.90
52107;DHT22;38105;52.968;5.974;2023-08-17T15:06:16;21.10;99.90
52107;DHT22;38105;52.968;5.974;2023-08-17T15:08:42;21.00;99.90
52107;DHT22;38105;52.968;5.974;2023-08-17T15:11:07;21.10;99.90
52107;DHT22;38105;52.968;5.974;2023-08-17T15:13:33;21.10;99.90
52107;DHT22;38105;52.968;5.974;2023-08-17T15:15:58;21.10;99.90
52107;DHT22;38105;52.968;5.974;2023-08-17T15:18:24;21.20;99.90
52107;DHT22;38105;52.968;5.974;2023-08-17T15:20:49;21.10;99.90
52107;DHT22;38105;52.968;5.974;2023-08-17T15:23:15;21.10;99.90
52107;DHT22;38105;52.968;5.974;2023-08-17T15:25:40;21.10;99.90
52107;DHT22;38105;52.968;5.974;2023-08-17T15:28:06;21.10;99.90
52107;DHT22;38105;52.968;5.974;2023-08-17T15:30:31;21.00;99.90
52107;DHT22;38105;52.968;5.974;2023-08-17T15:32:57;21.10;99.90
52107;DHT22;38105;52.968;5.974;2023-08-17T15:35:23;21.10;99.90